createdAt,value
2019-02-06T00:00:59.493Z,0.00
2019-02-06T00:01:59.521Z,0.00
2019-02-06T00:02:59.510Z,0.00
2019-02-06T00:03:59.466Z,0.00
2019-02-06T00:04:59.459Z,0.00
2019-02-06T00:05:59.466Z,0.00
2019-02-06T00:06:59.438Z,0.00
2019-02-06T00:07:59.513Z,0.00
2019-02-06T00:08:59.422Z,0.00
2019-02-06T00:09:59.410Z,0.00
2019-02-06T00:10:59.403Z,0.00
2019-02-06T00:42:53.238Z,0.00
2019-02-06T00:43:21.191Z,0.00
2019-02-06T00:44:21.228Z,0.00
2019-02-06T00:45:21.168Z,0.00
2019-02-06T00:46:21.150Z,0.00
2019-02-06T00:47:21.136Z,0.00
2019-02-06T00:48:21.124Z,0.00
2019-02-06T00:49:21.126Z,0.00
2019-02-06T00:50:21.106Z,0.00
2019-02-06T00:51:21.106Z,0.00
2019-02-06T00:52:21.089Z,0.00
2019-02-06T00:53:21.066Z,0.00
2019-02-06T00:54:21.091Z,0.00
2019-02-06T00:55:21.060Z,0.00
2019-02-06T00:56:21.046Z,0.00
2019-02-06T00:57:21.047Z,0.00
2019-02-06T00:58:21.021Z,0.00
2019-02-06T00:59:21.033Z,0.00
2019-02-06T01:00:21.000Z,0.00
2019-02-06T01:01:20.985Z,0.00
2019-02-06T01:02:20.987Z,0.00
2019-02-06T01:03:20.982Z,0.00
2019-02-06T01:04:20.965Z,0.00
2019-02-06T01:05:20.973Z,0.00
2019-02-06T01:06:20.942Z,0.00
2019-02-06T01:07:20.933Z,0.00
2019-02-06T01:08:20.925Z,0.00
2019-02-06T01:09:20.890Z,0.00
2019-02-06T01:10:20.909Z,0.00
2019-02-06T01:11:20.887Z,0.00
2019-02-06T01:12:20.894Z,0.00
2019-02-06T01:13:20.859Z,0.00
2019-02-06T01:14:20.860Z,0.00
2019-02-06T01:15:20.858Z,0.00
2019-02-06T01:16:20.842Z,0.00
2019-02-06T01:17:20.812Z,0.00
2019-02-06T01:18:20.810Z,0.00
2019-02-06T01:19:20.801Z,0.00
2019-02-06T01:20:20.806Z,0.00
2019-02-06T01:21:20.792Z,0.00
2019-02-06T01:22:20.767Z,0.00
2019-02-06T01:23:20.753Z,0.00
2019-02-06T01:24:20.759Z,0.00
2019-02-06T01:25:20.748Z,0.00
2019-02-06T01:26:20.716Z,0.00
2019-02-06T01:27:20.719Z,0.00
2019-02-06T01:28:20.697Z,0.00
2019-02-06T01:29:20.683Z,0.00
2019-02-06T01:30:20.697Z,0.00
2019-02-06T01:31:20.676Z,0.00
2019-02-06T01:32:20.657Z,0.00
2019-02-06T01:33:20.637Z,0.00
2019-02-06T01:34:20.632Z,0.00
2019-02-06T01:35:20.639Z,0.00
2019-02-06T01:36:20.614Z,0.00
2019-02-06T01:37:20.591Z,0.00
2019-02-06T01:38:20.592Z,0.00
2019-02-06T01:39:20.571Z,0.00
2019-02-06T01:40:20.579Z,0.00
2019-02-06T01:41:20.549Z,0.00
2019-02-06T01:42:20.566Z,0.00
2019-02-06T01:43:20.546Z,0.00
2019-02-06T01:44:20.532Z,0.00
2019-02-06T01:45:20.532Z,0.00
2019-02-06T01:46:20.500Z,0.00
2019-02-06T01:47:20.486Z,0.00
2019-02-06T01:48:20.486Z,0.00
2019-02-06T01:49:20.474Z,0.00
2019-02-06T01:50:20.472Z,0.00
2019-02-06T01:51:20.440Z,0.00
2019-02-06T01:52:20.422Z,0.00
2019-02-06T01:53:20.425Z,0.00
2019-02-06T01:54:20.414Z,0.00
2019-02-06T01:55:20.449Z,0.00
2019-02-06T01:56:20.396Z,0.00
2019-02-06T01:57:20.386Z,0.00
2019-02-06T01:58:20.356Z,0.00
2019-02-06T01:59:20.360Z,0.00
2019-02-06T02:00:20.435Z,0.00
2019-02-06T02:01:20.348Z,0.00
2019-02-06T02:02:20.324Z,0.00
2019-02-06T02:03:20.314Z,0.00
2019-02-06T02:04:20.296Z,0.00
2019-02-06T02:05:20.303Z,0.00
2019-02-06T02:06:20.304Z,0.00
2019-02-06T02:07:20.269Z,0.00
2019-02-06T02:08:20.263Z,0.00
2019-02-06T02:09:20.255Z,0.00
2019-02-06T02:10:20.238Z,0.00
2019-02-06T02:11:20.256Z,0.00
2019-02-06T02:12:20.211Z,0.00
2019-02-06T02:13:20.204Z,0.00
2019-02-06T02:14:20.212Z,0.00
2019-02-06T02:15:20.171Z,0.00
2019-02-06T02:16:20.181Z,0.00
2019-02-06T02:17:20.167Z,0.00
2019-02-06T02:18:20.156Z,0.00
2019-02-06T02:19:20.128Z,0.00
2019-02-06T02:20:20.123Z,0.00
2019-02-06T02:21:20.142Z,0.00
2019-02-06T02:22:20.102Z,0.00
2019-02-06T02:23:20.092Z,0.00
2019-02-06T02:24:20.098Z,0.00
2019-02-06T02:25:20.073Z,0.00
2019-02-06T02:26:20.055Z,0.00
2019-02-06T02:27:20.074Z,0.00
2019-02-06T02:28:20.045Z,0.00
2019-02-06T02:29:20.034Z,0.00
2019-02-06T02:30:20.013Z,0.00
2019-02-06T02:31:20.009Z,0.00
2019-02-06T02:32:20.029Z,0.00
2019-02-06T02:33:19.981Z,0.00
2019-02-06T02:34:19.972Z,0.00
2019-02-06T02:35:19.963Z,0.00
2019-02-06T02:36:19.950Z,0.00
2019-02-06T02:37:19.960Z,0.00
2019-02-06T02:38:19.929Z,0.00
2019-02-06T02:39:19.928Z,0.00
2019-02-06T02:40:19.900Z,0.00
2019-02-06T02:41:19.907Z,0.00
2019-02-06T02:42:19.898Z,0.00
2019-02-06T02:43:19.871Z,0.00
2019-02-06T02:44:19.859Z,0.00
2019-02-06T02:45:19.843Z,0.00
2019-02-06T02:46:19.836Z,0.00
2019-02-06T02:47:19.853Z,0.00
2019-02-06T02:48:19.827Z,0.00
2019-02-06T02:49:19.801Z,0.00
2019-02-06T02:50:19.808Z,0.00
2019-02-06T02:51:19.779Z,0.00
2019-02-06T02:52:19.789Z,0.00
2019-02-06T02:53:19.757Z,0.00
2019-02-06T02:54:19.748Z,0.00
2019-02-06T02:55:19.749Z,0.00
2019-02-06T02:56:19.760Z,0.00
2019-02-06T02:57:19.762Z,0.00
2019-02-06T02:58:19.712Z,0.00
2019-02-06T02:59:19.701Z,0.00
2019-02-06T03:00:19.695Z,0.00
2019-02-06T03:01:19.685Z,0.00
2019-02-06T03:02:19.681Z,0.00
2019-02-06T03:03:19.655Z,0.00
2019-02-06T03:04:19.639Z,0.00
2019-02-06T03:05:19.635Z,0.00
2019-02-06T03:06:27.766Z,0.00
2019-02-06T03:07:20.616Z,0.00
2019-02-06T03:08:19.649Z,0.00
2019-02-06T03:09:19.595Z,0.00
2019-02-06T03:10:19.576Z,0.00
2019-02-06T03:11:19.570Z,0.00
2019-02-06T03:12:19.600Z,0.00
2019-02-06T03:13:19.538Z,0.00
2019-02-06T03:14:19.522Z,0.00
2019-02-06T03:15:19.517Z,0.00
2019-02-06T03:16:19.501Z,0.00
2019-02-06T03:17:19.522Z,0.00
2019-02-06T03:18:19.498Z,0.00
2019-02-06T03:19:19.468Z,0.00
2019-02-06T03:20:19.467Z,0.00
2019-02-06T03:21:19.453Z,0.00
2019-02-06T03:22:19.465Z,0.00
2019-02-06T03:23:19.437Z,0.00
2019-02-06T03:24:19.416Z,0.00
2019-02-06T03:25:19.410Z,0.00
2019-02-06T03:26:19.408Z,0.00
2019-02-06T03:27:19.404Z,0.00
2019-02-06T03:28:19.393Z,0.00
2019-02-06T03:29:19.357Z,0.00
2019-02-06T03:30:19.730Z,0.00
2019-02-06T03:35:10.515Z,0.00
2019-02-06T03:35:49.486Z,0.00
2019-02-06T03:36:49.480Z,0.00
2019-02-06T03:37:49.475Z,0.00
2019-02-06T03:38:49.475Z,0.00
2019-02-06T03:39:49.450Z,0.00
2019-02-06T03:40:49.434Z,0.00
2019-02-06T03:41:49.416Z,0.00
2019-02-06T03:42:49.401Z,0.00
2019-02-06T03:43:49.416Z,0.00
2019-02-06T03:44:49.390Z,0.00
2019-02-06T03:45:49.377Z,0.00
2019-02-06T03:46:49.359Z,0.00
2019-02-06T03:47:49.361Z,0.00
2019-02-06T03:48:49.359Z,0.00
2019-02-06T03:49:49.338Z,0.00
2019-02-06T03:50:49.351Z,0.00
2019-02-06T03:51:49.333Z,0.00
2019-02-06T03:52:49.308Z,0.00
2019-02-06T03:53:49.298Z,0.00
2019-02-06T03:54:49.279Z,0.00
2019-02-06T03:55:49.270Z,0.00
2019-02-06T03:56:49.254Z,0.00
2019-02-06T03:57:49.236Z,0.00
2019-02-06T03:58:49.253Z,0.00
2019-02-06T03:59:49.221Z,0.00
2019-02-06T04:00:49.207Z,0.00
2019-02-06T04:01:49.206Z,0.00
2019-02-06T04:02:49.198Z,0.00
2019-02-06T04:03:49.191Z,0.00
2019-02-06T04:04:49.165Z,0.00
2019-02-06T04:05:49.159Z,0.00
2019-02-06T04:06:54.996Z,0.00
2019-02-06T04:07:50.140Z,0.00
2019-02-06T04:08:49.135Z,0.00
2019-02-06T04:09:49.113Z,0.00
2019-02-06T04:10:49.235Z,0.00
2019-02-06T04:11:49.216Z,0.00
2019-02-06T04:12:49.077Z,0.00
2019-02-06T04:13:49.094Z,0.00
2019-02-06T04:14:49.059Z,0.00
2019-02-06T04:15:49.041Z,0.00
2019-02-06T04:16:49.120Z,0.00
2019-02-06T04:17:49.026Z,0.00
2019-02-06T04:18:49.029Z,0.00
2019-02-06T04:19:49.033Z,0.00
2019-02-06T04:20:48.994Z,0.00
2019-02-06T04:21:48.988Z,0.00
2019-02-06T04:22:49.024Z,0.00
2019-02-06T04:23:48.961Z,0.00
2019-02-06T04:24:51.528Z,0.00
2019-02-06T04:25:48.930Z,0.00
2019-02-06T04:26:48.932Z,0.00
2019-02-06T04:27:48.905Z,0.00
2019-02-06T04:28:48.904Z,0.00
2019-02-06T04:29:48.910Z,0.00
2019-02-06T04:30:48.895Z,0.00
2019-02-06T04:31:48.867Z,0.00
2019-02-06T04:32:48.866Z,0.00
2019-02-06T04:33:48.881Z,0.00
2019-02-06T04:34:48.833Z,0.00
2019-02-06T04:35:48.849Z,0.00
2019-02-06T04:36:48.818Z,0.00
2019-02-06T04:37:48.810Z,0.00
2019-02-06T04:38:48.800Z,0.00
2019-02-06T04:39:48.788Z,0.00
2019-02-06T04:40:48.776Z,0.00
2019-02-06T04:41:48.759Z,0.00
2019-02-06T04:42:48.751Z,0.00
2019-02-06T04:43:48.743Z,0.00
2019-02-06T04:44:48.734Z,0.00
2019-02-06T04:45:48.738Z,0.00
2019-02-06T04:46:48.742Z,0.00
2019-02-06T04:47:48.692Z,0.00
2019-02-06T04:48:48.676Z,0.00
2019-02-06T04:49:48.674Z,0.00
2019-02-06T04:50:48.682Z,0.00
2019-02-06T04:51:48.650Z,0.00
2019-02-06T04:52:48.650Z,0.00
2019-02-06T04:53:48.624Z,0.00
2019-02-06T04:54:48.623Z,0.00
2019-02-06T04:55:48.603Z,0.00
2019-02-06T04:56:48.612Z,0.00
2019-02-06T04:57:48.586Z,0.00
2019-02-06T04:58:48.584Z,0.00
2019-02-06T04:59:48.583Z,0.00
2019-02-06T05:00:48.569Z,0.00
2019-02-06T05:01:48.550Z,0.00
2019-02-06T05:02:48.516Z,0.00
2019-02-06T05:03:48.516Z,0.00
2019-02-06T05:04:48.508Z,0.00
2019-02-06T05:05:48.488Z,0.00
2019-02-06T05:06:48.504Z,0.00
2019-02-06T05:07:48.485Z,0.00
2019-02-06T05:08:48.449Z,0.00
2019-02-06T05:09:48.456Z,0.00
2019-02-06T05:10:48.433Z,0.00
2019-02-06T05:11:48.432Z,0.00
2019-02-06T05:12:48.441Z,0.00
2019-02-06T05:13:48.454Z,0.00
2019-02-06T05:14:48.401Z,0.00
2019-02-06T05:15:48.389Z,0.00
2019-02-06T05:16:48.371Z,0.00
2019-02-06T05:17:48.377Z,0.00
2019-02-06T05:18:48.347Z,0.00
2019-02-06T05:19:48.335Z,0.00
2019-02-06T05:20:48.333Z,0.00
2019-02-06T05:21:48.325Z,0.00
2019-02-06T05:22:48.325Z,0.00
2019-02-06T05:23:48.291Z,0.00
2019-02-06T05:24:48.297Z,0.00
2019-02-06T05:25:48.280Z,0.00
2019-02-06T05:26:48.273Z,0.00
2019-02-06T05:27:48.281Z,0.00
2019-02-06T05:28:48.238Z,0.00
2019-02-06T05:29:48.224Z,0.00
2019-02-06T05:30:48.224Z,0.00
2019-02-06T05:31:48.207Z,0.00
2019-02-06T05:32:48.205Z,0.00
2019-02-06T05:33:48.204Z,0.00
2019-02-06T05:34:48.191Z,0.00
2019-02-06T05:35:48.169Z,0.00
2019-02-06T05:36:50.782Z,0.00
2019-02-06T05:37:48.153Z,0.00
2019-02-06T05:38:48.168Z,0.00
2019-02-06T05:39:48.129Z,0.00
2019-02-06T05:40:48.114Z,0.00
2019-02-06T05:41:48.101Z,0.00
2019-02-06T05:42:48.093Z,0.00
2019-02-06T05:43:48.101Z,0.00
2019-02-06T05:44:48.071Z,0.00
2019-02-06T05:45:48.059Z,0.00
2019-02-06T05:46:48.057Z,0.00
2019-02-06T05:47:48.062Z,0.00
2019-02-06T05:48:49.389Z,0.00
2019-02-06T05:49:48.016Z,0.00
2019-02-06T05:50:48.001Z,0.00
2019-02-06T05:51:48.007Z,0.00
2019-02-06T05:52:47.984Z,0.00
2019-02-06T05:53:47.967Z,0.00
2019-02-06T05:54:47.971Z,0.00
2019-02-06T05:55:47.947Z,0.00
2019-02-06T05:56:47.935Z,0.00
2019-02-06T05:57:47.938Z,0.00
2019-02-06T05:58:47.920Z,0.00
2019-02-06T05:59:47.944Z,0.00
2019-02-06T06:00:47.890Z,0.00
2019-02-06T06:01:47.888Z,0.00
2019-02-06T06:02:47.871Z,0.00
2019-02-06T06:03:47.864Z,0.00
2019-02-06T06:04:47.871Z,0.00
2019-02-06T06:05:47.842Z,0.00
2019-02-06T06:06:47.844Z,0.00
2019-02-06T06:07:47.820Z,0.00
2019-02-06T06:08:47.818Z,0.00
2019-02-06T06:09:47.837Z,0.00
2019-02-06T06:10:47.785Z,0.00
2019-02-06T06:11:47.786Z,0.00
2019-02-06T06:12:47.767Z,0.00
2019-02-06T06:13:47.767Z,0.00
2019-02-06T06:14:47.746Z,0.00
2019-02-06T06:15:47.742Z,0.00
2019-02-06T06:16:47.726Z,0.00
2019-02-06T06:17:47.707Z,0.00
2019-02-06T06:18:47.692Z,0.00
2019-02-06T06:19:47.681Z,0.00
2019-02-06T06:20:47.687Z,0.00
2019-02-06T06:21:47.668Z,0.00
2019-02-06T06:22:47.658Z,0.00
2019-02-06T06:23:47.659Z,0.00
2019-02-06T06:24:47.631Z,0.00
2019-02-06T06:25:47.637Z,0.00
2019-02-06T06:26:47.622Z,0.00
2019-02-06T06:27:47.609Z,0.00
2019-02-06T06:28:47.583Z,0.00
2019-02-06T06:29:47.584Z,0.00
2019-02-06T06:30:47.639Z,0.00
2019-02-06T06:31:47.557Z,0.00
2019-02-06T06:32:47.548Z,0.00
2019-02-06T06:33:47.537Z,0.00
2019-02-06T06:34:47.519Z,0.00
2019-02-06T06:35:47.529Z,0.00
2019-02-06T06:36:47.512Z,0.00
2019-02-06T06:37:57.790Z,0.00
2019-02-06T06:38:48.485Z,0.00
2019-02-06T06:39:47.483Z,0.00
2019-02-06T06:40:47.465Z,0.00
2019-02-06T06:41:47.472Z,0.00
2019-02-06T06:42:47.448Z,0.00
2019-02-06T06:43:47.429Z,0.00
2019-02-06T06:44:47.423Z,0.00
2019-02-06T06:45:47.414Z,0.00
2019-02-06T06:46:47.421Z,0.00
2019-02-06T06:47:47.393Z,0.00
2019-02-06T06:48:47.391Z,0.00
2019-02-06T06:49:47.369Z,0.00
2019-02-06T06:50:47.356Z,0.00
2019-02-06T06:51:47.359Z,0.00
2019-02-06T06:52:47.343Z,0.00
2019-02-06T06:53:47.317Z,0.00
2019-02-06T06:54:47.313Z,0.00
2019-02-06T06:55:47.305Z,0.00
2019-02-06T06:56:47.315Z,5.62
2019-02-06T06:57:47.339Z,5.62
2019-02-06T06:58:47.266Z,5.62
2019-02-06T06:59:47.266Z,5.62
2019-02-06T07:00:47.259Z,5.62
2019-02-06T07:01:47.275Z,5.62
2019-02-06T07:02:47.241Z,5.62
2019-02-06T07:03:47.234Z,5.62
2019-02-06T07:04:47.240Z,5.62
2019-02-06T07:05:47.194Z,5.62
2019-02-06T07:06:47.180Z,5.62
2019-02-06T07:07:47.268Z,5.62
2019-02-06T07:08:47.152Z,5.62
2019-02-06T07:09:47.150Z,5.62
2019-02-06T07:10:47.132Z,5.62
2019-02-06T07:11:47.123Z,5.62
2019-02-06T07:12:47.154Z,5.62
2019-02-06T07:13:47.108Z,11.25
2019-02-06T07:14:47.080Z,11.25
2019-02-06T07:15:47.084Z,11.25
2019-02-06T07:16:47.095Z,11.25
2019-02-06T07:17:47.099Z,11.25
2019-02-06T07:18:47.055Z,11.25
2019-02-06T07:19:47.048Z,11.25
2019-02-06T07:20:47.028Z,11.25
2019-02-06T07:21:47.032Z,11.25
2019-02-06T07:22:47.046Z,11.25
2019-02-06T07:23:47.036Z,11.25
2019-02-06T07:24:46.983Z,11.25
2019-02-06T07:25:47.020Z,11.25
2019-02-06T07:26:46.954Z,16.88
2019-02-06T07:27:46.964Z,16.88
2019-02-06T07:28:46.961Z,16.88
2019-02-06T07:29:46.960Z,16.88
2019-02-06T07:30:46.920Z,16.88
2019-02-06T07:31:46.942Z,16.88
2019-02-06T07:32:46.923Z,16.88
2019-02-06T07:33:46.927Z,16.88
2019-02-06T07:34:46.881Z,16.88
2019-02-06T07:35:46.889Z,16.88
2019-02-06T07:36:46.850Z,16.88
2019-02-06T07:37:46.849Z,16.88
2019-02-06T07:38:46.845Z,16.88
2019-02-06T07:39:46.850Z,16.88
2019-02-06T07:40:46.816Z,16.88
2019-02-06T07:41:46.804Z,16.88
2019-02-06T07:42:46.779Z,16.88
2019-02-06T07:43:46.791Z,16.88
2019-02-06T07:44:46.775Z,16.88
2019-02-06T07:45:46.757Z,16.88
2019-02-06T07:46:46.745Z,16.88
2019-02-06T07:47:46.737Z,22.50
2019-02-06T07:48:46.745Z,22.50
2019-02-06T07:49:46.725Z,22.50
2019-02-06T07:50:46.716Z,22.50
2019-02-06T07:51:46.679Z,22.50
2019-02-06T07:52:46.692Z,22.50
2019-02-06T07:53:46.708Z,22.50
2019-02-06T07:54:46.661Z,22.50
2019-02-06T07:55:46.651Z,22.50
2019-02-06T07:56:46.635Z,22.50
2019-02-06T07:57:46.641Z,22.50
2019-02-06T07:58:46.612Z,22.50
2019-02-06T07:59:46.626Z,22.50
2019-02-06T08:00:46.593Z,22.50
2019-02-06T08:01:46.575Z,22.50
2019-02-06T08:02:46.570Z,22.50
2019-02-06T08:03:46.561Z,22.50
2019-02-06T08:04:46.561Z,22.50
2019-02-06T08:05:46.540Z,22.50
2019-02-06T08:06:46.536Z,22.50
2019-02-06T08:07:46.514Z,22.50
2019-02-06T08:08:46.494Z,28.12
2019-02-06T08:09:46.508Z,28.12
2019-02-06T08:10:46.485Z,28.12
2019-02-06T08:11:46.481Z,28.12
2019-02-06T08:12:46.464Z,28.12
2019-02-06T08:13:46.472Z,28.12
2019-02-06T08:14:46.457Z,28.12
2019-02-06T08:15:46.426Z,28.12
2019-02-06T08:16:46.436Z,28.12
2019-02-06T08:17:46.409Z,28.12
2019-02-06T08:18:46.407Z,28.12
2019-02-06T08:19:46.404Z,28.12
2019-02-06T08:20:46.375Z,28.12
2019-02-06T08:21:46.368Z,28.12
2019-02-06T08:22:46.363Z,28.12
2019-02-06T08:23:46.351Z,28.12
2019-02-06T08:24:46.349Z,28.12
2019-02-06T08:25:46.314Z,28.12
2019-02-06T08:26:46.316Z,28.12
2019-02-06T08:27:46.307Z,28.12
2019-02-06T08:28:46.297Z,33.75
2019-02-06T08:29:46.291Z,28.12
2019-02-06T08:30:46.314Z,28.12
2019-02-06T08:31:46.261Z,33.75
2019-02-06T08:32:46.250Z,33.75
2019-02-06T08:33:46.247Z,33.75
2019-02-06T08:34:46.258Z,33.75
2019-02-06T08:35:46.213Z,33.75
2019-02-06T08:36:46.210Z,33.75
2019-02-06T08:37:46.200Z,33.75
2019-02-06T08:38:47.898Z,33.75
2019-02-06T08:39:46.207Z,33.75
2019-02-06T08:40:46.156Z,33.75
2019-02-06T08:41:46.147Z,33.75
2019-02-06T08:42:46.144Z,33.75
2019-02-06T08:43:46.131Z,33.75
2019-02-06T08:44:46.114Z,33.75
2019-02-06T08:45:46.125Z,33.75
2019-02-06T08:46:46.090Z,33.75
2019-02-06T08:47:46.079Z,33.75
2019-02-06T08:48:46.076Z,33.75
2019-02-06T08:49:46.052Z,33.75
2019-02-06T08:50:46.077Z,39.38
2019-02-06T08:51:46.040Z,39.38
2019-02-06T08:52:46.026Z,39.38
2019-02-06T08:53:46.010Z,39.38
2019-02-06T08:54:46.033Z,39.38
2019-02-06T08:55:46.017Z,39.38
2019-02-06T08:56:46.031Z,39.38
2019-02-06T08:57:45.983Z,39.38
2019-02-06T08:58:45.969Z,39.38
2019-02-06T08:59:45.946Z,39.38
2019-02-06T09:00:45.952Z,39.38
2019-02-06T09:01:45.931Z,45.00
2019-02-06T09:02:45.929Z,39.38
2019-02-06T09:03:45.919Z,39.38
2019-02-06T09:04:55.465Z,45.00
2019-02-06T09:05:46.913Z,39.38
2019-02-06T09:06:45.872Z,39.38
2019-02-06T09:07:45.854Z,45.00
2019-02-06T09:08:45.851Z,45.00
2019-02-06T09:09:45.841Z,45.00
2019-02-06T09:10:45.864Z,45.00
2019-02-06T09:11:45.826Z,45.00
2019-02-06T09:12:45.804Z,45.00
2019-02-06T09:13:45.790Z,45.00
2019-02-06T09:14:45.805Z,45.00
2019-02-06T09:15:45.794Z,45.00
2019-02-06T09:16:45.789Z,45.00
2019-02-06T09:17:45.747Z,45.00
2019-02-06T09:18:45.745Z,45.00
2019-02-06T09:19:45.727Z,45.00
2019-02-06T09:20:46.171Z,45.00
2019-02-06T09:21:45.705Z,45.00
2019-02-06T09:22:45.695Z,45.00
2019-02-06T09:23:45.693Z,45.00
2019-02-06T09:24:45.681Z,39.38
2019-02-06T09:25:45.659Z,39.38
2019-02-06T09:26:45.673Z,39.38
2019-02-06T09:27:45.642Z,45.00
2019-02-06T09:28:45.638Z,39.38
2019-02-06T09:29:45.632Z,39.38
2019-02-06T09:30:45.633Z,39.38
2019-02-06T09:31:45.634Z,39.38
2019-02-06T09:32:45.600Z,39.38
2019-02-06T09:33:45.575Z,39.38
2019-02-06T09:34:45.567Z,39.38
2019-02-06T09:35:45.574Z,39.38
2019-02-06T09:36:45.567Z,39.38
2019-02-06T09:37:45.539Z,39.38
2019-02-06T09:38:45.521Z,39.38
2019-02-06T09:39:45.511Z,39.38
2019-02-06T09:40:45.498Z,39.38
2019-02-06T09:41:45.574Z,39.38
2019-02-06T09:42:45.497Z,39.38
2019-02-06T09:43:45.471Z,39.38
2019-02-06T09:44:45.465Z,45.00
2019-02-06T09:45:45.449Z,45.00
2019-02-06T09:46:45.455Z,45.00
2019-02-06T09:47:45.436Z,45.00
2019-02-06T09:48:45.427Z,45.00
2019-02-06T09:49:45.407Z,45.00
2019-02-06T09:50:45.413Z,45.00
2019-02-06T09:51:45.396Z,45.00
2019-02-06T09:52:45.458Z,45.00
2019-02-06T09:53:45.363Z,45.00
2019-02-06T09:54:45.337Z,45.00
2019-02-06T09:55:45.345Z,45.00
2019-02-06T09:56:45.346Z,45.00
2019-02-06T09:57:45.324Z,45.00
2019-02-06T09:58:45.304Z,45.00
2019-02-06T09:59:45.311Z,45.00
2019-02-06T10:00:45.276Z,45.00
2019-02-06T10:01:45.288Z,45.00
2019-02-06T10:02:45.266Z,45.00
2019-02-06T10:03:46.968Z,45.00
2019-02-06T10:04:45.234Z,45.00
2019-02-06T10:05:45.222Z,45.00
2019-02-06T10:06:45.237Z,45.00
2019-02-06T10:07:46.266Z,45.00
2019-02-06T10:08:45.265Z,45.00
2019-02-06T10:09:45.189Z,45.00
2019-02-06T10:10:45.167Z,45.00
2019-02-06T10:11:45.180Z,45.00
2019-02-06T10:12:45.163Z,45.00
2019-02-06T10:13:45.217Z,45.00
2019-02-06T10:14:45.128Z,45.00
2019-02-06T10:15:45.116Z,45.00
2019-02-06T10:16:45.134Z,45.00
2019-02-06T10:17:45.095Z,45.00
2019-02-06T10:18:45.082Z,45.00
2019-02-06T10:19:45.066Z,45.00
2019-02-06T10:20:45.063Z,45.00
2019-02-06T10:21:45.073Z,45.00
2019-02-06T10:22:45.042Z,45.00
2019-02-06T10:23:45.033Z,45.00
2019-02-06T10:24:45.018Z,45.00
2019-02-06T10:25:45.002Z,45.00
2019-02-06T10:26:45.002Z,45.00
2019-02-06T10:27:44.982Z,45.00
2019-02-06T10:28:44.988Z,45.00
2019-02-06T10:29:44.967Z,45.00
2019-02-06T10:30:44.950Z,45.00
2019-02-06T10:31:44.967Z,39.38
2019-02-06T10:32:44.929Z,39.38
2019-02-06T10:33:44.910Z,39.38
2019-02-06T10:34:44.926Z,39.38
2019-02-06T10:35:44.895Z,39.38
2019-02-06T10:36:44.894Z,39.38
2019-02-06T10:37:44.916Z,39.38
2019-02-06T10:38:44.851Z,39.38
2019-02-06T10:39:44.861Z,39.38
2019-02-06T10:40:44.843Z,39.38
2019-02-06T10:41:44.862Z,39.38
2019-02-06T10:42:44.823Z,45.00
2019-02-06T10:43:44.799Z,45.00
2019-02-06T10:44:44.795Z,50.62
2019-02-06T10:45:44.788Z,50.62
2019-02-06T10:46:44.775Z,56.25
2019-02-06T10:47:44.786Z,56.25
2019-02-06T10:48:44.760Z,56.25
2019-02-06T10:49:44.736Z,56.25
2019-02-06T10:50:44.724Z,56.25
2019-02-06T10:51:44.721Z,56.25
2019-02-06T10:52:44.740Z,56.25
2019-02-06T10:53:44.727Z,56.25
2019-02-06T10:54:44.711Z,56.25
2019-02-06T10:55:44.693Z,56.25
2019-02-06T10:56:44.669Z,56.25
2019-02-06T10:57:44.657Z,56.25
2019-02-06T10:58:44.651Z,56.25
2019-02-06T10:59:44.617Z,56.25
2019-02-06T11:00:44.626Z,56.25
2019-02-06T11:01:44.648Z,56.25
2019-02-06T11:02:44.607Z,56.25
2019-02-06T11:03:44.595Z,56.25
2019-02-06T11:04:44.579Z,56.25
2019-02-06T11:05:44.555Z,50.62
2019-02-06T11:06:44.539Z,50.62
2019-02-06T11:07:46.213Z,50.62
2019-02-06T11:08:44.538Z,50.62
2019-02-06T11:09:46.462Z,50.62
2019-02-06T11:10:44.511Z,50.62
2019-02-06T11:11:44.515Z,50.62
2019-02-06T11:12:44.495Z,50.62
2019-02-06T11:13:44.523Z,50.62
2019-02-06T11:14:44.463Z,50.62
2019-02-06T11:15:44.457Z,50.62
2019-02-06T11:16:44.436Z,50.62
2019-02-06T11:17:44.449Z,50.62
2019-02-06T11:18:44.695Z,50.62
2019-02-06T11:19:44.420Z,50.62
2019-02-06T11:20:44.391Z,50.62
2019-02-06T11:21:44.421Z,50.62
2019-02-06T11:22:44.387Z,56.25
2019-02-06T11:23:44.359Z,56.25
2019-02-06T11:24:44.344Z,56.25
2019-02-06T11:25:44.339Z,56.25
2019-02-06T11:26:44.343Z,56.25
2019-02-06T11:27:44.328Z,56.25
2019-02-06T11:28:44.325Z,56.25
2019-02-06T11:29:44.302Z,56.25
2019-02-06T11:30:44.304Z,56.25
2019-02-06T11:31:44.280Z,56.25
2019-02-06T11:32:44.292Z,56.25
2019-02-06T11:33:44.255Z,56.25
2019-02-06T11:34:44.232Z,56.25
2019-02-06T11:35:44.225Z,56.25
2019-02-06T11:36:44.216Z,56.25
2019-02-06T11:37:44.259Z,56.25
2019-02-06T11:38:44.200Z,56.25
2019-02-06T11:39:44.204Z,56.25
2019-02-06T11:40:44.258Z,56.25
2019-02-06T11:41:44.205Z,56.25
2019-02-06T11:42:44.166Z,56.25
2019-02-06T11:43:44.174Z,56.25
2019-02-06T11:44:44.134Z,56.25
2019-02-06T11:45:44.112Z,61.88
2019-02-06T11:46:44.116Z,61.88
2019-02-06T11:47:44.084Z,61.88
2019-02-06T11:48:44.092Z,61.88
2019-02-06T11:49:44.071Z,56.25
2019-02-06T11:50:44.141Z,56.25
2019-02-06T11:51:44.053Z,56.25
2019-02-06T11:52:44.045Z,50.62
2019-02-06T11:53:44.040Z,50.62
2019-02-06T11:54:44.009Z,50.62
2019-02-06T11:55:44.012Z,50.62
2019-02-06T11:56:43.992Z,45.00
2019-02-06T11:57:43.991Z,45.00
2019-02-06T11:58:43.991Z,45.00
2019-02-06T11:59:43.982Z,45.00
2019-02-06T12:00:43.949Z,45.00
2019-02-06T12:01:43.958Z,45.00
2019-02-06T12:02:43.932Z,45.00
2019-02-06T12:03:43.936Z,45.00
2019-02-06T12:04:43.912Z,45.00
2019-02-06T12:05:43.887Z,45.00
2019-02-06T12:06:43.886Z,45.00
2019-02-06T12:07:43.881Z,45.00
2019-02-06T12:08:43.903Z,45.00
2019-02-06T12:09:43.850Z,50.62
2019-02-06T12:10:43.846Z,50.62
2019-02-06T12:11:43.841Z,50.62
2019-02-06T12:12:43.829Z,50.62
2019-02-06T12:13:43.927Z,50.62
2019-02-06T12:14:43.802Z,50.62
2019-02-06T12:15:43.790Z,50.62
2019-02-06T12:16:43.789Z,50.62
2019-02-06T12:17:43.790Z,50.62
2019-02-06T12:18:43.799Z,50.62
2019-02-06T12:19:43.747Z,50.62
2019-02-06T12:20:43.802Z,50.62
2019-02-06T12:21:43.741Z,50.62
2019-02-06T12:22:43.763Z,56.25
2019-02-06T12:23:43.787Z,56.25
2019-02-06T12:24:43.788Z,50.62
2019-02-06T12:25:43.682Z,50.62
2019-02-06T12:26:43.673Z,50.62
2019-02-06T12:27:43.671Z,50.62
2019-02-06T12:28:43.666Z,50.62
2019-02-06T12:29:43.627Z,50.62
2019-02-06T12:30:43.615Z,45.00
2019-02-06T12:31:43.609Z,45.00
2019-02-06T12:32:51.903Z,45.00
2019-02-06T12:33:44.634Z,45.00
2019-02-06T12:34:43.582Z,39.38
2019-02-06T12:35:43.566Z,39.38
2019-02-06T12:36:43.583Z,39.38
2019-02-06T12:37:43.551Z,39.38
2019-02-06T12:38:53.218Z,39.38
2019-02-06T12:39:44.548Z,39.38
2019-02-06T12:40:43.509Z,39.38
2019-02-06T12:41:43.489Z,33.75
2019-02-06T12:42:43.496Z,33.75
2019-02-06T12:43:43.470Z,39.38
2019-02-06T12:44:43.481Z,39.38
2019-02-06T12:45:43.451Z,39.38
2019-02-06T12:46:43.466Z,39.38
2019-02-06T12:47:43.423Z,39.38
2019-02-06T12:48:43.424Z,39.38
2019-02-06T12:49:43.414Z,39.38
2019-02-06T12:50:43.410Z,39.38
2019-02-06T12:51:43.389Z,39.38
2019-02-06T12:52:43.383Z,39.38
2019-02-06T12:53:43.366Z,39.38
2019-02-06T12:54:43.366Z,39.38
2019-02-06T12:55:43.352Z,39.38
2019-02-06T12:56:43.334Z,39.38
2019-02-06T12:57:43.333Z,39.38
2019-02-06T12:58:43.300Z,39.38
2019-02-06T12:59:43.334Z,45.00
2019-02-06T13:00:43.289Z,45.00
2019-02-06T13:01:43.290Z,45.00
2019-02-06T13:02:43.272Z,45.00
2019-02-06T13:03:43.266Z,45.00
2019-02-06T13:04:43.270Z,45.00
2019-02-06T13:05:43.240Z,45.00
2019-02-06T13:06:43.222Z,45.00
2019-02-06T13:07:44.182Z,50.62
2019-02-06T13:08:43.200Z,50.62
2019-02-06T13:09:43.205Z,50.62
2019-02-06T13:10:43.178Z,50.62
2019-02-06T13:11:43.174Z,50.62
2019-02-06T13:12:43.264Z,50.62
2019-02-06T13:13:45.203Z,50.62
2019-02-06T13:14:43.156Z,50.62
2019-02-06T13:15:43.114Z,50.62
2019-02-06T13:16:43.106Z,50.62
2019-02-06T13:17:43.110Z,45.00
2019-02-06T13:18:43.091Z,45.00
2019-02-06T13:19:43.175Z,45.00
2019-02-06T13:20:43.073Z,45.00
2019-02-06T13:21:43.080Z,45.00
2019-02-06T13:22:43.063Z,45.00
2019-02-06T13:23:43.029Z,45.00
2019-02-06T13:24:43.017Z,45.00
2019-02-06T13:25:43.044Z,45.00
2019-02-06T13:26:44.287Z,39.38
2019-02-06T13:27:42.985Z,39.38
2019-02-06T13:28:42.970Z,39.38
2019-02-06T13:29:42.968Z,45.00
2019-02-06T13:30:42.978Z,45.00
2019-02-06T13:31:42.947Z,45.00
2019-02-06T13:32:42.941Z,45.00
2019-02-06T13:33:42.921Z,45.00
2019-02-06T13:34:42.916Z,45.00
2019-02-06T13:35:42.913Z,45.00
2019-02-06T13:36:42.913Z,45.00
2019-02-06T13:37:42.872Z,45.00
2019-02-06T13:38:42.859Z,45.00
2019-02-06T13:39:42.851Z,45.00